createdAt,value
2023-03-24T00:00:33.097Z,6.50
2023-03-24T00:03:02.975Z,5.57
2023-03-24T00:05:30.827Z,4.00
2023-03-24T00:08:02.238Z,5.80
2023-03-24T00:10:30.713Z,4.65
2023-03-24T00:12:58.583Z,7.18
2023-03-24T00:15:26.409Z,9.23
2023-03-24T00:17:56.138Z,3.70
2023-03-24T00:20:24.643Z,3.38
2023-03-24T00:22:57.331Z,4.13
2023-03-24T00:25:30.163Z,3.80
2023-03-24T00:27:58.041Z,5.95
2023-03-24T00:30:26.440Z,6.55
2023-03-24T00:32:54.214Z,4.13
2023-03-24T00:35:21.987Z,1.98
2023-03-24T00:37:52.261Z,3.92
2023-03-24T00:40:21.336Z,3.05
2023-03-24T00:42:50.895Z,3.85
2023-03-24T00:45:20.863Z,3.53
2023-03-24T00:47:50.494Z,3.17
2023-03-24T00:50:20.735Z,3.22
2023-03-24T00:52:49.368Z,2.15
2023-03-24T00:55:17.322Z,2.58
2023-03-24T00:57:50.052Z,3.55
2023-03-24T01:00:21.872Z,2.33
2023-03-24T01:02:54.059Z,2.25
2023-03-24T01:05:28.611Z,3.38
2023-03-24T01:08:03.382Z,3.25
2023-03-24T01:10:33.568Z,3.63
2023-03-24T01:13:01.887Z,2.53
2023-03-24T01:15:33.686Z,3.53
2023-03-24T01:18:04.251Z,7.18
2023-03-24T01:20:35.869Z,6.07
2023-03-24T01:23:07.927Z,3.63
2023-03-24T01:25:37.981Z,2.75
2023-03-24T01:28:05.414Z,6.80
2023-03-24T01:30:32.882Z,6.63
2023-03-24T01:33:00.765Z,4.43
2023-03-24T01:35:29.575Z,4.00
2023-03-24T01:37:58.223Z,3.63
2023-03-24T01:40:29.503Z,4.35
2023-03-24T01:42:58.138Z,3.38
2023-03-24T01:45:57.384Z,3.88
2023-03-24T01:48:42.054Z,2.63
2023-03-24T01:51:18.538Z,3.35
2023-03-24T01:54:08.195Z,3.80
2023-03-24T01:56:38.728Z,3.67
2023-03-24T01:59:16.881Z,1.38
2023-03-24T02:01:54.589Z,2.72
2023-03-24T02:04:44.419Z,5.25
2023-03-24T02:07:30.104Z,3.03
2023-03-24T02:09:57.713Z,5.90
2023-03-24T02:12:25.114Z,4.47
2023-03-24T02:14:54.436Z,1.85
2023-03-24T02:17:35.932Z,3.05
2023-03-24T02:20:10.590Z,3.40
2023-03-24T02:22:59.854Z,3.58
2023-03-24T02:25:56.363Z,9.40
2023-03-24T02:28:32.501Z,2.75
2023-03-24T02:31:06.573Z,7.50
2023-03-24T02:33:36.656Z,4.22
2023-03-24T02:36:41.889Z,5.55
2023-03-24T02:39:24.248Z,4.97
2023-03-24T02:42:04.077Z,7.53
2023-03-24T02:44:57.156Z,4.82
2023-03-24T02:47:42.604Z,5.75
2023-03-24T02:50:18.703Z,6.95
2023-03-24T02:52:53.415Z,7.43
2023-03-24T02:55:48.950Z,6.18
2023-03-24T02:58:32.487Z,3.28
2023-03-24T03:01:31.891Z,5.50
2023-03-24T03:04:37.511Z,4.82
2023-03-24T03:07:09.947Z,3.78
2023-03-24T03:09:42.931Z,4.97
2023-03-24T03:12:13.148Z,3.97
2023-03-24T03:14:45.977Z,7.68
2023-03-24T03:17:21.062Z,10.18
2023-03-24T03:19:55.484Z,3.42
2023-03-24T03:22:31.565Z,2.15
2023-03-24T03:25:03.532Z,3.75
2023-03-24T03:27:39.572Z,5.25
2023-03-24T03:30:14.161Z,3.97
2023-03-24T03:32:45.804Z,2.85
2023-03-24T03:35:36.495Z,1.52
2023-03-24T03:38:19.550Z,5.03
2023-03-24T03:40:56.673Z,1.30
2023-03-24T03:43:30.548Z,3.92
2023-03-24T03:46:00.124Z,2.13
2023-03-24T03:48:34.386Z,2.58
2023-03-24T03:51:13.026Z,2.75
2023-03-24T03:53:58.385Z,3.58
2023-03-24T03:56:29.434Z,1.55
2023-03-24T03:59:34.056Z,4.40
2023-03-24T04:02:56.363Z,4.50
2023-03-24T04:05:42.854Z,3.33
2023-03-24T04:08:37.602Z,2.03
2023-03-24T04:11:19.652Z,1.33
2023-03-24T04:14:42.902Z,2.88
2023-03-24T04:17:46.068Z,2.78
2023-03-24T04:20:38.435Z,4.93
2023-03-24T04:23:54.370Z,1.92
2023-03-24T04:27:03.553Z,2.75
2023-03-24T04:30:08.264Z,3.63
2023-03-24T04:32:52.481Z,4.05
2023-03-24T04:35:34.030Z,2.95
2023-03-24T04:38:27.859Z,3.38
2023-03-24T04:41:18.092Z,3.45
2023-03-24T04:43:55.189Z,3.20
2023-03-24T04:46:23.742Z,2.05
2023-03-24T04:49:10.819Z,1.45
2023-03-24T04:51:39.760Z,3.10
2023-03-24T04:54:13.209Z,4.20
2023-03-24T04:56:51.061Z,2.20
2023-03-24T04:59:34.750Z,3.42
2023-03-24T05:02:04.247Z,3.80
2023-03-24T05:04:50.355Z,3.58
2023-03-24T05:07:22.665Z,3.63
2023-03-24T05:09:53.638Z,2.72
2023-03-24T05:12:20.896Z,4.18
2023-03-24T05:15:09.161Z,2.33
2023-03-24T05:17:37.014Z,2.10
2023-03-24T05:20:10.868Z,6.70
2023-03-24T05:22:40.633Z,4.80
2023-03-24T05:25:08.766Z,2.40
2023-03-24T05:27:36.193Z,4.72
2023-03-24T05:30:16.558Z,4.32
2023-03-24T05:32:46.115Z,2.58
2023-03-24T05:35:15.008Z,2.55
2023-03-24T05:37:43.693Z,2.88
2023-03-24T05:40:11.660Z,2.30
2023-03-24T05:42:59.125Z,3.13
2023-03-24T05:45:31.448Z,1.38
2023-03-24T05:48:00.633Z,5.95
2023-03-24T05:50:42.500Z,1.52
2023-03-24T05:53:09.898Z,3.53
2023-03-24T05:55:58.865Z,2.25
2023-03-24T05:58:46.152Z,1.17
2023-03-24T06:01:13.434Z,1.67
2023-03-24T06:03:40.957Z,2.15
2023-03-24T06:06:17.068Z,1.63
2023-03-24T06:08:47.648Z,1.08
2023-03-24T06:11:16.888Z,1.80
2023-03-24T06:14:03.293Z,1.30
2023-03-24T06:16:39.136Z,1.38
2023-03-24T06:19:07.243Z,1.02
2023-03-24T06:21:51.886Z,1.77
2023-03-24T06:24:23.769Z,0.95
2023-03-24T06:26:52.173Z,2.58
2023-03-24T06:29:19.399Z,2.20
2023-03-24T06:31:48.757Z,1.42
2023-03-24T06:34:16.477Z,3.10
2023-03-24T06:36:48.453Z,0.77
2023-03-24T06:39:15.748Z,1.70
2023-03-24T06:41:43.303Z,1.67
2023-03-24T06:44:10.528Z,2.15
2023-03-24T06:46:37.882Z,1.08
2023-03-24T06:49:05.352Z,1.85
2023-03-24T06:51:32.984Z,2.15
2023-03-24T06:54:00.382Z,2.20
2023-03-24T06:56:27.856Z,1.48
2023-03-24T06:58:58.822Z,1.77
2023-03-24T07:01:35.379Z,2.30
2023-03-24T07:04:17.668Z,1.15
2023-03-24T07:07:01.951Z,1.42
2023-03-24T07:09:35.366Z,1.33
2023-03-24T07:12:03.869Z,1.88
2023-03-24T07:14:31.147Z,0.77
2023-03-24T07:16:59.536Z,1.25
2023-03-24T07:19:27.803Z,1.90
2023-03-24T07:22:20.082Z,2.17
2023-03-24T07:25:14.495Z,1.40
2023-03-24T07:27:56.288Z,1.67
2023-03-24T07:30:37.183Z,1.92
2023-03-24T07:33:11.003Z,1.23
2023-03-24T07:35:42.071Z,1.08
2023-03-24T07:38:10.756Z,1.52
2023-03-24T07:40:38.392Z,1.88
2023-03-24T07:43:09.158Z,1.65
2023-03-24T07:45:55.039Z,1.52
2023-03-24T07:48:22.413Z,1.52
2023-03-24T07:50:53.259Z,1.20
2023-03-24T07:53:39.367Z,1.45
2023-03-24T07:56:08.087Z,2.70
2023-03-24T07:58:40.221Z,2.05
2023-03-24T08:01:17.471Z,1.75
2023-03-24T08:03:49.628Z,1.10
2023-03-24T08:06:17.255Z,0.80
2023-03-24T08:08:49.811Z,1.20
2023-03-24T08:11:17.168Z,0.80
2023-03-24T08:13:44.384Z,0.70
2023-03-24T08:16:11.735Z,1.60
2023-03-24T08:18:39.378Z,1.30
2023-03-24T08:21:06.935Z,6.13
2023-03-24T08:23:34.487Z,1.65
2023-03-24T08:26:02.748Z,1.00
2023-03-24T08:28:30.337Z,0.88
2023-03-24T08:30:57.847Z,1.00
2023-03-24T08:33:25.428Z,0.80
2023-03-24T08:35:57.937Z,1.10
2023-03-24T08:38:30.901Z,0.60
2023-03-24T08:41:06.959Z,0.55
2023-03-24T08:43:36.483Z,0.82
2023-03-24T08:46:07.159Z,3.30
2023-03-24T08:48:37.253Z,0.50
2023-03-24T08:51:15.174Z,0.60
2023-03-24T08:53:43.567Z,0.60
2023-03-24T08:56:11.202Z,1.45
2023-03-24T08:58:38.663Z,0.60
2023-03-24T09:01:06.276Z,0.73
2023-03-24T09:03:33.565Z,0.70
2023-03-24T09:06:01.229Z,0.70
2023-03-24T09:08:28.571Z,0.57
2023-03-24T09:10:55.922Z,1.75
2023-03-24T09:13:23.598Z,0.60
2023-03-24T09:15:54.788Z,0.88
2023-03-24T09:18:22.413Z,1.45
2023-03-24T09:20:50.480Z,0.40
2023-03-24T09:23:19.228Z,0.60
2023-03-24T09:25:48.571Z,0.60
2023-03-24T09:28:16.331Z,0.50
2023-03-24T09:30:44.417Z,0.60
2023-03-24T09:33:12.181Z,0.77
2023-03-24T09:35:39.908Z,0.82
2023-03-24T09:38:07.582Z,0.40
2023-03-24T09:40:39.886Z,1.15
2023-03-24T09:43:08.921Z,0.55
2023-03-24T09:45:50.338Z,1.13
2023-03-24T09:48:24.607Z,0.45
2023-03-24T09:51:11.051Z,0.75
2023-03-24T09:53:50.412Z,0.75
2023-03-24T09:56:20.994Z,0.82
2023-03-24T09:59:08.568Z,0.85
2023-03-24T10:01:38.803Z,0.40
2023-03-24T10:04:14.844Z,0.40
2023-03-24T10:06:42.567Z,1.25
2023-03-24T10:09:36.735Z,1.20
2023-03-24T10:12:31.639Z,0.80
2023-03-24T10:15:07.796Z,0.60
2023-03-24T10:17:52.009Z,0.75
2023-03-24T10:20:49.103Z,1.60
2023-03-24T10:23:19.304Z,0.90
2023-03-24T10:26:09.486Z,0.80
2023-03-24T10:29:04.766Z,0.65
2023-03-24T10:31:35.020Z,1.63
2023-03-24T10:34:02.242Z,1.88
2023-03-24T10:36:31.104Z,1.35
2023-03-24T10:39:01.878Z,1.55
2023-03-24T10:41:36.431Z,1.70
2023-03-24T10:44:03.836Z,0.85
2023-03-24T10:46:32.252Z,3.53
2023-03-24T10:49:16.232Z,1.77
2023-03-24T10:52:01.438Z,1.25
2023-03-24T10:54:32.878Z,2.08
2023-03-24T10:57:03.915Z,2.67
2023-03-24T10:59:38.761Z,1.70
2023-03-24T11:02:24.544Z,1.50
2023-03-24T11:04:57.240Z,0.57
2023-03-24T11:07:37.260Z,1.00
2023-03-24T11:10:27.843Z,0.60
2023-03-24T11:12:55.054Z,0.95
2023-03-24T11:15:30.558Z,0.93
2023-03-24T11:18:16.850Z,1.05
2023-03-24T11:20:45.635Z,0.55
2023-03-24T11:23:31.138Z,1.15
2023-03-24T11:26:07.535Z,1.48
2023-03-24T11:28:46.151Z,0.65
2023-03-24T11:31:24.733Z,3.67
2023-03-24T11:34:44.550Z,0.43
2023-03-24T11:37:23.132Z,1.35
2023-03-24T11:40:26.459Z,1.70
2023-03-24T11:43:04.276Z,0.82
2023-03-24T11:45:37.353Z,0.98
2023-03-24T11:48:28.906Z,0.40
2023-03-24T11:53:47.006Z,0.55
2023-03-24T11:56:58.461Z,0.30
2023-03-24T11:59:58.279Z,0.43
2023-03-24T12:02:47.271Z,0.88
2023-03-24T12:05:27.569Z,0.60
2023-03-24T12:08:27.668Z,0.65
2023-03-24T12:11:07.356Z,1.63
2023-03-24T12:13:39.055Z,0.52
2023-03-24T12:16:36.746Z,0.43
2023-03-24T12:19:27.675Z,0.30
2023-03-24T12:22:18.522Z,1.88
2023-03-24T12:24:54.989Z,0.50
2023-03-24T12:27:37.831Z,0.40
2023-03-24T12:30:28.929Z,0.43
2023-03-24T12:33:08.503Z,0.70
2023-03-24T12:35:45.093Z,0.77
2023-03-24T12:38:40.085Z,0.30
2023-03-24T12:41:30.375Z,0.40
2023-03-24T12:44:16.581Z,0.47
2023-03-24T12:47:02.662Z,0.30
2023-03-24T12:49:54.109Z,0.45
2023-03-24T12:52:24.132Z,0.45
2023-03-24T12:55:10.468Z,1.10
2023-03-24T12:57:58.078Z,0.50
2023-03-24T13:00:31.363Z,0.60
2023-03-24T13:03:04.210Z,0.85
2023-03-24T13:05:34.312Z,1.05
2023-03-24T13:08:13.772Z,1.40
2023-03-24T13:10:42.182Z,1.13
2023-03-24T13:13:45.096Z,1.27
2023-03-24T13:16:19.408Z,0.77
2023-03-24T13:18:50.745Z,1.35
2023-03-24T13:21:24.845Z,2.33
2023-03-24T13:24:08.757Z,1.05
2023-03-24T13:26:58.844Z,0.77
2023-03-24T13:29:38.497Z,1.05
2023-03-24T13:32:22.614Z,3.03
2023-03-24T13:34:59.898Z,0.77
2023-03-24T13:37:46.776Z,1.20
2023-03-24T13:40:26.024Z,1.08
2023-03-24T13:42:56.239Z,0.50
2023-03-24T13:45:30.855Z,0.60
2023-03-24T13:48:10.038Z,1.45
2023-03-24T13:51:03.459Z,1.67
2023-03-24T13:53:43.775Z,1.25
2023-03-24T13:56:21.197Z,1.35
2023-03-24T13:58:59.745Z,1.20
2023-03-24T14:01:36.110Z,3.13
2023-03-24T14:04:26.544Z,0.95
2023-03-24T14:06:55.941Z,1.85
2023-03-24T14:09:27.283Z,2.45
2023-03-24T14:12:07.392Z,0.80
2023-03-24T14:14:56.399Z,0.60
2023-03-24T14:17:23.677Z,0.52
2023-03-24T14:20:02.845Z,0.50
2023-03-24T14:22:41.916Z,1.05
2023-03-24T14:25:15.413Z,0.50
2023-03-24T14:27:47.785Z,0.50
2023-03-24T14:30:30.652Z,0.50
2023-03-24T14:33:00.512Z,1.33
2023-03-24T14:35:37.142Z,0.40
2023-03-24T14:38:17.677Z,0.50
2023-03-24T14:40:48.966Z,0.57
2023-03-24T14:43:29.716Z,1.30
2023-03-24T14:46:02.117Z,0.68
2023-03-24T14:48:53.857Z,0.98
2023-03-24T14:51:25.821Z,0.65
2023-03-24T14:53:58.118Z,0.95
2023-03-24T14:56:33.230Z,2.58
2023-03-24T14:59:05.732Z,3.03
2023-03-24T15:01:35.040Z,1.20
2023-03-24T15:04:11.355Z,3.10
2023-03-24T15:06:48.913Z,0.40
2023-03-24T15:09:18.130Z,0.50
2023-03-24T15:11:47.892Z,0.50
2023-03-24T15:14:26.425Z,0.40
2023-03-24T15:17:25.898Z,0.40
2023-03-24T15:19:54.954Z,0.43
2023-03-24T15:22:22.092Z,0.63
2023-03-24T15:24:52.218Z,0.40
2023-03-24T15:27:29.146Z,0.63
2023-03-24T15:29:59.429Z,0.50
2023-03-24T15:32:32.118Z,0.63
2023-03-24T15:35:05.960Z,0.40
2023-03-24T15:37:41.492Z,0.65
2023-03-24T15:40:30.554Z,0.50
2023-03-24T15:43:03.925Z,0.70
2023-03-24T15:45:43.769Z,0.60
2023-03-24T15:48:18.861Z,0.63
2023-03-24T15:50:57.279Z,0.93
2023-03-24T15:53:27.950Z,0.93
2023-03-24T15:56:06.535Z,0.82
2023-03-24T15:58:47.944Z,0.85
2023-03-24T16:01:27.471Z,0.82
2023-03-24T16:03:55.376Z,2.15
2023-03-24T16:06:30.157Z,1.88
2023-03-24T16:09:04.921Z,2.10
2023-03-24T16:11:32.102Z,0.85
2023-03-24T16:13:59.524Z,0.98
2023-03-24T16:16:36.405Z,1.52
2023-03-24T16:19:04.437Z,0.80
2023-03-24T16:21:34.429Z,0.90
2023-03-24T16:24:02.510Z,0.80
2023-03-24T16:26:33.759Z,0.65
2023-03-24T16:29:19.001Z,2.47
2023-03-24T16:31:51.415Z,1.70
2023-03-24T16:34:21.245Z,1.35
2023-03-24T16:36:50.014Z,0.90
2023-03-24T16:39:23.245Z,1.27
2023-03-24T16:41:51.078Z,1.30
2023-03-24T16:44:18.567Z,1.00
2023-03-24T16:46:47.229Z,1.15
2023-03-24T16:49:16.650Z,1.40
2023-03-24T16:51:44.874Z,1.48
2023-03-24T16:54:12.273Z,1.40
2023-03-24T16:56:40.564Z,1.02
2023-03-24T16:59:09.284Z,1.23
2023-03-24T17:01:43.302Z,1.10
2023-03-24T17:04:16.411Z,1.15
2023-03-24T17:06:49.346Z,1.65
2023-03-24T17:09:17.471Z,1.95
2023-03-24T17:11:58.567Z,1.50
2023-03-24T17:14:25.771Z,1.35
2023-03-24T17:16:53.875Z,1.60
2023-03-24T17:19:23.662Z,1.95
2023-03-24T17:21:58.266Z,1.25
2023-03-24T17:24:25.643Z,1.02
2023-03-24T17:26:53.014Z,1.30
2023-03-24T17:29:20.497Z,1.25
2023-03-24T17:31:47.718Z,1.23
2023-03-24T17:34:21.525Z,0.85
2023-03-24T17:36:50.853Z,0.80
2023-03-24T17:39:19.176Z,0.63
2023-03-24T17:41:46.358Z,0.60
2023-03-24T17:44:13.826Z,0.52
2023-03-24T17:46:41.543Z,0.68
2023-03-24T17:49:09.070Z,0.68
2023-03-24T17:51:36.331Z,0.75
2023-03-24T17:54:04.304Z,1.55
2023-03-24T17:56:32.163Z,0.90
2023-03-24T17:58:59.486Z,0.73
2023-03-24T18:01:29.612Z,0.60
2023-03-24T18:03:57.778Z,0.88
2023-03-24T18:06:25.291Z,1.20
2023-03-24T18:08:52.727Z,1.60
2023-03-24T18:11:20.194Z,2.55
2023-03-24T18:13:47.676Z,3.38
2023-03-24T18:16:21.385Z,2.65
2023-03-24T18:18:50.770Z,4.80
2023-03-24T18:21:18.860Z,3.67
2023-03-24T18:23:47.139Z,2.58
2023-03-24T18:26:15.892Z,1.83
2023-03-24T18:28:45.789Z,2.20
2023-03-24T18:31:18.951Z,1.80
2023-03-24T18:33:50.494Z,2.17
2023-03-24T18:36:21.363Z,2.60
2023-03-24T18:38:49.346Z,2.10
2023-03-24T18:41:18.686Z,4.05
2023-03-24T18:43:48.290Z,2.60
2023-03-24T18:46:15.801Z,2.20
2023-03-24T18:48:43.702Z,2.25
2023-03-24T18:51:11.585Z,3.28
2023-03-24T18:53:39.265Z,2.13
2023-03-24T18:56:08.434Z,4.50
2023-03-24T18:58:38.290Z,5.13
2023-03-24T19:01:11.277Z,3.90
2023-03-24T19:03:41.001Z,3.03
2023-03-24T19:06:09.457Z,4.28
2023-03-24T19:08:41.209Z,3.25
2023-03-24T19:11:09.619Z,4.00
2023-03-24T19:13:37.420Z,5.78
2023-03-24T19:16:06.051Z,8.35
2023-03-24T19:18:33.201Z,6.38
2023-03-24T19:21:02.137Z,5.20
2023-03-24T19:23:30.611Z,5.22
2023-03-24T19:25:57.944Z,5.60
2023-03-24T19:28:29.993Z,6.97
2023-03-24T19:30:59.363Z,6.43
2023-03-24T19:33:27.486Z,7.22
2023-03-24T19:35:54.958Z,6.50
2023-03-24T19:38:24.177Z,5.00
2023-03-24T19:40:53.893Z,6.53
2023-03-24T19:43:25.417Z,4.93
2023-03-24T19:45:56.252Z,5.10
2023-03-24T19:48:23.708Z,5.28
2023-03-24T19:50:52.695Z,3.72
2023-03-24T19:53:21.234Z,5.38
2023-03-24T19:55:49.195Z,8.88
2023-03-24T19:58:17.573Z,10.20
2023-03-24T20:00:44.940Z,10.68
2023-03-24T20:03:12.305Z,9.73
2023-03-24T20:05:39.689Z,14.07
2023-03-24T20:08:07.032Z,13.70
2023-03-24T20:10:37.187Z,10.27
2023-03-24T20:13:04.511Z,12.60
2023-03-24T20:15:31.809Z,9.40
2023-03-24T20:17:59.464Z,6.65
2023-03-24T20:20:26.657Z,7.13
2023-03-24T20:22:53.756Z,8.75
2023-03-24T20:25:20.953Z,6.82
2023-03-24T20:27:48.384Z,3.97
2023-03-24T20:30:17.562Z,2.97
2023-03-24T20:32:44.905Z,5.22
2023-03-24T20:35:12.434Z,5.00
2023-03-24T20:37:39.624Z,5.10
2023-03-24T20:40:09.781Z,5.85
2023-03-24T20:42:37.833Z,3.80
2023-03-24T20:45:07.349Z,4.18
2023-03-24T20:47:36.638Z,2.95
2023-03-24T20:50:06.134Z,2.70
2023-03-24T20:52:33.410Z,5.00
2023-03-24T20:55:01.701Z,2.72
2023-03-24T20:57:30.261Z,2.45
2023-03-24T20:59:58.004Z,4.47
2023-03-24T21:02:25.614Z,4.72
2023-03-24T21:04:53.048Z,3.65
2023-03-24T21:07:20.608Z,4.10
2023-03-24T21:09:47.756Z,4.03
2023-03-24T21:12:14.895Z,6.65
2023-03-24T21:14:42.693Z,6.13
2023-03-24T21:17:10.088Z,4.95
2023-03-24T21:19:37.482Z,4.22
2023-03-24T21:22:04.826Z,3.95
2023-03-24T21:24:32.107Z,4.00
2023-03-24T21:27:00.983Z,3.55
2023-03-24T21:29:28.520Z,3.10
2023-03-24T21:31:55.747Z,2.63
2023-03-24T21:34:22.877Z,3.35
2023-03-24T21:36:53.664Z,2.65
2023-03-24T21:39:20.831Z,3.70
2023-03-24T21:41:48.063Z,4.45
2023-03-24T21:44:15.405Z,5.90
2023-03-24T21:46:43.143Z,4.50
2023-03-24T21:49:11.172Z,6.68
2023-03-24T21:51:38.488Z,5.43
2023-03-24T21:54:09.912Z,6.60
2023-03-24T21:56:38.380Z,7.55
2023-03-24T21:59:05.807Z,7.82
2023-03-24T22:01:36.109Z,7.28
2023-03-24T22:04:04.146Z,7.68
2023-03-24T22:06:37.981Z,6.18
2023-03-24T22:09:07.332Z,6.60
2023-03-24T22:11:36.454Z,7.10
2023-03-24T22:14:04.122Z,7.47
2023-03-24T22:16:33.192Z,5.43
2023-03-24T22:19:01.777Z,8.00
2023-03-24T22:21:29.197Z,9.40
2023-03-24T22:23:56.498Z,10.90
2023-03-24T22:26:23.728Z,9.52
2023-03-24T22:28:51.137Z,8.40
2023-03-24T22:31:18.441Z,12.35
2023-03-24T22:33:47.680Z,9.65
2023-03-24T22:36:14.874Z,8.18
2023-03-24T22:38:42.523Z,7.50
2023-03-24T22:41:12.788Z,10.30
2023-03-24T22:43:41.776Z,9.38
2023-03-24T22:46:10.463Z,10.60
2023-03-24T22:48:40.988Z,10.63
2023-03-24T22:51:08.979Z,5.68
2023-03-24T22:53:36.163Z,8.32
2023-03-24T22:56:03.719Z,8.25
2023-03-24T22:58:30.827Z,7.95
2023-03-24T23:00:57.894Z,6.55
2023-03-24T23:03:25.202Z,9.13
2023-03-24T23:05:52.683Z,11.00
2023-03-24T23:08:20.211Z,6.57
2023-03-24T23:10:47.781Z,9.15
2023-03-24T23:13:17.199Z,6.25
2023-03-24T23:15:47.950Z,6.65
2023-03-24T23:18:15.901Z,8.15
2023-03-24T23:20:43.095Z,8.27
2023-03-24T23:23:11.000Z,6.70
2023-03-24T23:25:43.655Z,6.43
2023-03-24T23:28:12.161Z,5.30
2023-03-24T23:30:40.613Z,5.80
2023-03-24T23:33:08.093Z,11.70
2023-03-24T23:35:37.578Z,7.90
2023-03-24T23:38:06.873Z,8.07
2023-03-24T23:40:35.401Z,7.68
2023-03-24T23:43:02.826Z,8.57
2023-03-24T23:45:30.024Z,5.68
2023-03-24T23:47:57.330Z,8.77
2023-03-24T23:50:24.620Z,8.68
2023-03-24T23:52:51.785Z,5.63
2023-03-24T23:55:21.074Z,4.22
2023-03-24T23:57:49.329Z,7.55
